sensor_id;sensor_type;location;lat;lon;timestamp;P1;durP1;ratioP1;P2;durP2;ratioP2
6751;SDS011;3413;47.680;9.166;2023-03-03T00:01:19;39.13;;;12.47;;
6751;SDS011;3413;47.680;9.166;2023-03-03T00:06:21;33.30;;;12.20;;
6751;SDS011;3413;47.680;9.166;2023-03-03T00:11:25;31.80;;;11.70;;
6751;SDS011;3413;47.680;9.166;2023-03-03T00:16:28;27.37;;;10.87;;
6751;SDS011;3413;47.680;9.166;2023-03-03T00:21:41;30.80;;;10.70;;
6751;SDS011;3413;47.680;9.166;2023-03-03T00:26:49;33.80;;;11.80;;
6751;SDS011;3413;47.680;9.166;2023-03-03T00:32:15;31.27;;;11.87;;
6751;SDS011;3413;47.680;9.166;2023-03-03T00:37:32;31.43;;;12.00;;
6751;SDS011;3413;47.680;9.166;2023-03-03T00:42:35;37.13;;;13.87;;
6751;SDS011;3413;47.680;9.166;2023-03-03T00:47:37;39.50;;;12.27;;
6751;SDS011;3413;47.680;9.166;2023-03-03T00:52:45;36.00;;;11.80;;
6751;SDS011;3413;47.680;9.166;2023-03-03T00:58:18;39.87;;;11.40;;
6751;SDS011;3413;47.680;9.166;2023-03-03T01:03:23;35.97;;;12.60;;
6751;SDS011;3413;47.680;9.166;2023-03-03T01:08:27;39.27;;;12.37;;
6751;SDS011;3413;47.680;9.166;2023-03-03T01:13:30;28.03;;;10.67;;
6751;SDS011;3413;47.680;9.166;2023-03-03T01:18:37;36.43;;;11.60;;
6751;SDS011;3413;47.680;9.166;2023-03-03T01:23:42;40.40;;;11.60;;
6751;SDS011;3413;47.680;9.166;2023-03-03T01:28:43;37.23;;;11.20;;
6751;SDS011;3413;47.680;9.166;2023-03-03T01:33:45;30.37;;;11.07;;
6751;SDS011;3413;47.680;9.166;2023-03-03T01:38:47;37.83;;;12.03;;
6751;SDS011;3413;47.680;9.166;2023-03-03T01:43:49;30.60;;;11.40;;
6751;SDS011;3413;47.680;9.166;2023-03-03T01:48:52;35.40;;;11.70;;
6751;SDS011;3413;47.680;9.166;2023-03-03T01:54:04;35.37;;;12.73;;
6751;SDS011;3413;47.680;9.166;2023-03-03T01:59:13;38.90;;;12.77;;
6751;SDS011;3413;47.680;9.166;2023-03-03T02:04:20;39.80;;;12.07;;
6751;SDS011;3413;47.680;9.166;2023-03-03T02:14:38;32.30;;;11.50;;
6751;SDS011;3413;47.680;9.166;2023-03-03T02:19:59;36.07;;;13.23;;
6751;SDS011;3413;47.680;9.166;2023-03-03T02:25:07;38.67;;;12.20;;
6751;SDS011;3413;47.680;9.166;2023-03-03T02:30:17;39.20;;;13.97;;
6751;SDS011;3413;47.680;9.166;2023-03-03T02:35:25;37.87;;;11.70;;
6751;SDS011;3413;47.680;9.166;2023-03-03T02:40:34;32.53;;;11.77;;
6751;SDS011;3413;47.680;9.166;2023-03-03T02:45:41;43.47;;;12.60;;
6751;SDS011;3413;47.680;9.166;2023-03-03T02:50:44;33.80;;;12.70;;
6751;SDS011;3413;47.680;9.166;2023-03-03T02:55:46;33.90;;;11.83;;
6751;SDS011;3413;47.680;9.166;2023-03-03T03:00:48;35.80;;;12.40;;
6751;SDS011;3413;47.680;9.166;2023-03-03T03:05:55;34.60;;;12.97;;
6751;SDS011;3413;47.680;9.166;2023-03-03T03:10:58;39.70;;;12.80;;
6751;SDS011;3413;47.680;9.166;2023-03-03T03:16:02;51.63;;;13.97;;
6751;SDS011;3413;47.680;9.166;2023-03-03T03:21:08;39.77;;;12.37;;
6751;SDS011;3413;47.680;9.166;2023-03-03T03:26:13;43.17;;;14.30;;
6751;SDS011;3413;47.680;9.166;2023-03-03T03:31:16;35.03;;;12.27;;
6751;SDS011;3413;47.680;9.166;2023-03-03T03:36:21;42.43;;;12.37;;
6751;SDS011;3413;47.680;9.166;2023-03-03T03:41:24;44.57;;;12.50;;
6751;SDS011;3413;47.680;9.166;2023-03-03T03:46:26;44.07;;;13.57;;
6751;SDS011;3413;47.680;9.166;2023-03-03T03:51:28;30.30;;;11.03;;
6751;SDS011;3413;47.680;9.166;2023-03-03T03:56:32;36.20;;;12.20;;
6751;SDS011;3413;47.680;9.166;2023-03-03T04:01:35;31.23;;;11.03;;
6751;SDS011;3413;47.680;9.166;2023-03-03T04:06:37;42.20;;;13.30;;
6751;SDS011;3413;47.680;9.166;2023-03-03T04:11:40;36.00;;;12.70;;
6751;SDS011;3413;47.680;9.166;2023-03-03T04:16:43;40.13;;;12.40;;
6751;SDS011;3413;47.680;9.166;2023-03-03T04:21:46;37.73;;;13.50;;
6751;SDS011;3413;47.680;9.166;2023-03-03T04:26:48;38.60;;;13.50;;
6751;SDS011;3413;47.680;9.166;2023-03-03T04:31:50;50.57;;;15.03;;
6751;SDS011;3413;47.680;9.166;2023-03-03T04:36:53;44.07;;;14.47;;
6751;SDS011;3413;47.680;9.166;2023-03-03T04:41:55;38.63;;;12.77;;
6751;SDS011;3413;47.680;9.166;2023-03-03T04:46:57;37.77;;;13.87;;
6751;SDS011;3413;47.680;9.166;2023-03-03T04:51:59;41.13;;;13.17;;
6751;SDS011;3413;47.680;9.166;2023-03-03T04:57:01;45.93;;;14.00;;
6751;SDS011;3413;47.680;9.166;2023-03-03T05:02:03;43.47;;;14.73;;
6751;SDS011;3413;47.680;9.166;2023-03-03T05:07:05;46.80;;;14.93;;
6751;SDS011;3413;47.680;9.166;2023-03-03T05:12:07;38.33;;;13.40;;
6751;SDS011;3413;47.680;9.166;2023-03-03T05:17:09;31.87;;;12.20;;
6751;SDS011;3413;47.680;9.166;2023-03-03T05:22:11;45.60;;;13.40;;
6751;SDS011;3413;47.680;9.166;2023-03-03T05:27:13;44.03;;;14.10;;
6751;SDS011;3413;47.680;9.166;2023-03-03T05:32:15;40.93;;;13.47;;
6751;SDS011;3413;47.680;9.166;2023-03-03T05:37:17;40.10;;;12.20;;
6751;SDS011;3413;47.680;9.166;2023-03-03T05:42:19;50.23;;;15.30;;
6751;SDS011;3413;47.680;9.166;2023-03-03T05:47:22;53.30;;;13.83;;
6751;SDS011;3413;47.680;9.166;2023-03-03T05:52:24;35.37;;;13.17;;
6751;SDS011;3413;47.680;9.166;2023-03-03T05:57:25;36.13;;;12.60;;
6751;SDS011;3413;47.680;9.166;2023-03-03T06:02:28;38.20;;;13.00;;
6751;SDS011;3413;47.680;9.166;2023-03-03T06:07:29;43.50;;;14.37;;
6751;SDS011;3413;47.680;9.166;2023-03-03T06:12:31;43.27;;;13.97;;
6751;SDS011;3413;47.680;9.166;2023-03-03T06:17:33;56.20;;;15.20;;
6751;SDS011;3413;47.680;9.166;2023-03-03T06:22:35;40.53;;;15.13;;
6751;SDS011;3413;47.680;9.166;2023-03-03T06:27:37;52.73;;;14.70;;
6751;SDS011;3413;47.680;9.166;2023-03-03T06:32:39;44.30;;;14.37;;
6751;SDS011;3413;47.680;9.166;2023-03-03T06:37:41;35.07;;;12.87;;
6751;SDS011;3413;47.680;9.166;2023-03-03T06:42:43;46.20;;;14.27;;
6751;SDS011;3413;47.680;9.166;2023-03-03T06:47:45;34.70;;;13.73;;
6751;SDS011;3413;47.680;9.166;2023-03-03T06:52:47;40.47;;;13.63;;
6751;SDS011;3413;47.680;9.166;2023-03-03T06:57:49;46.90;;;14.20;;
6751;SDS011;3413;47.680;9.166;2023-03-03T07:03:34;51.87;;;14.63;;
6751;SDS011;3413;47.680;9.166;2023-03-03T07:08:19;38.40;;;13.27;;
6751;SDS011;3413;47.680;9.166;2023-03-03T07:13:24;49.90;;;15.57;;
6751;SDS011;3413;47.680;9.166;2023-03-03T07:18:36;46.07;;;15.80;;
6751;SDS011;3413;47.680;9.166;2023-03-03T07:23:52;41.90;;;14.60;;
6751;SDS011;3413;47.680;9.166;2023-03-03T07:29:15;45.27;;;15.03;;
6751;SDS011;3413;47.680;9.166;2023-03-03T07:39:37;45.57;;;15.87;;
6751;SDS011;3413;47.680;9.166;2023-03-03T07:44:42;50.33;;;14.93;;
6751;SDS011;3413;47.680;9.166;2023-03-03T07:49:47;49.93;;;16.17;;
6751;SDS011;3413;47.680;9.166;2023-03-03T07:54:50;42.70;;;14.40;;
6751;SDS011;3413;47.680;9.166;2023-03-03T08:00:01;53.83;;;15.67;;
6751;SDS011;3413;47.680;9.166;2023-03-03T08:05:26;41.37;;;15.50;;
6751;SDS011;3413;47.680;9.166;2023-03-03T08:21:12;47.47;;;15.10;;
6751;SDS011;3413;47.680;9.166;2023-03-03T08:26:15;47.90;;;14.07;;
6751;SDS011;3413;47.680;9.166;2023-03-03T08:31:18;47.90;;;14.40;;
6751;SDS011;3413;47.680;9.166;2023-03-03T08:36:40;48.27;;;14.53;;
6751;SDS011;3413;47.680;9.166;2023-03-03T08:41:42;51.77;;;14.10;;
6751;SDS011;3413;47.680;9.166;2023-03-03T08:46:44;43.93;;;14.07;;
6751;SDS011;3413;47.680;9.166;2023-03-03T08:51:46;46.90;;;12.97;;
6751;SDS011;3413;47.680;9.166;2023-03-03T08:56:48;49.53;;;14.97;;
6751;SDS011;3413;47.680;9.166;2023-03-03T09:01:50;45.20;;;13.43;;
6751;SDS011;3413;47.680;9.166;2023-03-03T09:06:53;46.87;;;14.20;;
6751;SDS011;3413;47.680;9.166;2023-03-03T09:11:58;43.00;;;13.53;;
6751;SDS011;3413;47.680;9.166;2023-03-03T09:17:33;48.10;;;15.83;;
6751;SDS011;3413;47.680;9.166;2023-03-03T09:22:35;41.00;;;14.77;;
6751;SDS011;3413;47.680;9.166;2023-03-03T09:27:38;54.97;;;15.07;;
6751;SDS011;3413;47.680;9.166;2023-03-03T09:32:41;52.40;;;15.80;;
6751;SDS011;3413;47.680;9.166;2023-03-03T09:37:43;52.10;;;16.60;;
6751;SDS011;3413;47.680;9.166;2023-03-03T09:42:50;47.20;;;15.00;;
6751;SDS011;3413;47.680;9.166;2023-03-03T09:48:17;48.07;;;13.97;;
6751;SDS011;3413;47.680;9.166;2023-03-03T09:53:44;40.80;;;13.40;;
6751;SDS011;3413;47.680;9.166;2023-03-03T10:04:34;52.43;;;15.97;;
6751;SDS011;3413;47.680;9.166;2023-03-03T10:09:45;43.87;;;14.37;;
6751;SDS011;3413;47.680;9.166;2023-03-03T10:25:52;48.40;;;16.30;;
6751;SDS011;3413;47.680;9.166;2023-03-03T10:36:39;47.77;;;15.30;;
6751;SDS011;3413;47.680;9.166;2023-03-03T10:41:55;57.47;;;15.30;;
6751;SDS011;3413;47.680;9.166;2023-03-03T11:08:48;47.27;;;16.63;;
6751;SDS011;3413;47.680;9.166;2023-03-03T11:19:39;52.10;;;14.90;;
6751;SDS011;3413;47.680;9.166;2023-03-03T11:35:32;43.10;;;14.40;;
6751;SDS011;3413;47.680;9.166;2023-03-03T11:40:56;49.33;;;14.13;;
6751;SDS011;3413;47.680;9.166;2023-03-03T11:46:31;53.47;;;16.27;;
6751;SDS011;3413;47.680;9.166;2023-03-03T11:57:15;43.63;;;16.40;;
6751;SDS011;3413;47.680;9.166;2023-03-03T12:28:51;34.50;;;13.83;;
6751;SDS011;3413;47.680;9.166;2023-03-03T12:39:26;42.80;;;13.80;;
6751;SDS011;3413;47.680;9.166;2023-03-03T12:55:15;40.70;;;15.20;;
6751;SDS011;3413;47.680;9.166;2023-03-03T13:00:23;49.63;;;15.30;;
6751;SDS011;3413;47.680;9.166;2023-03-03T13:16:30;45.80;;;16.03;;
6751;SDS011;3413;47.680;9.166;2023-03-03T13:32:07;51.87;;;16.40;;
6751;SDS011;3413;47.680;9.166;2023-03-03T13:37:18;49.20;;;15.60;;
6751;SDS011;3413;47.680;9.166;2023-03-03T13:47:29;56.67;;;16.23;;
6751;SDS011;3413;47.680;9.166;2023-03-03T13:58:24;54.67;;;15.87;;
6751;SDS011;3413;47.680;9.166;2023-03-03T14:14:14;45.03;;;14.30;;
6751;SDS011;3413;47.680;9.166;2023-03-03T14:24:49;45.03;;;15.00;;
6751;SDS011;3413;47.680;9.166;2023-03-03T14:35:22;45.80;;;15.57;;
6751;SDS011;3413;47.680;9.166;2023-03-03T14:40:30;42.30;;;13.27;;
6751;SDS011;3413;47.680;9.166;2023-03-03T14:45:38;52.70;;;16.80;;
6751;SDS011;3413;47.680;9.166;2023-03-03T14:50:42;45.60;;;14.57;;
6751;SDS011;3413;47.680;9.166;2023-03-03T14:56:13;56.63;;;16.27;;
6751;SDS011;3413;47.680;9.166;2023-03-03T15:01:22;49.87;;;15.43;;
6751;SDS011;3413;47.680;9.166;2023-03-03T15:06:39;50.23;;;15.47;;
6751;SDS011;3413;47.680;9.166;2023-03-03T15:11:45;52.30;;;16.00;;
6751;SDS011;3413;47.680;9.166;2023-03-03T15:16:47;40.00;;;14.73;;
6751;SDS011;3413;47.680;9.166;2023-03-03T15:21:54;43.30;;;15.57;;
6751;SDS011;3413;47.680;9.166;2023-03-03T15:28:04;40.10;;;14.07;;
6751;SDS011;3413;47.680;9.166;2023-03-03T15:32:51;49.03;;;15.93;;
6751;SDS011;3413;47.680;9.166;2023-03-03T15:38:14;45.90;;;15.80;;
6751;SDS011;3413;47.680;9.166;2023-03-03T15:43:31;51.17;;;16.00;;
6751;SDS011;3413;47.680;9.166;2023-03-03T15:49:08;46.90;;;15.40;;
6751;SDS011;3413;47.680;9.166;2023-03-03T16:00:12;44.10;;;14.47;;
6751;SDS011;3413;47.680;9.166;2023-03-03T16:11:25;41.00;;;15.23;;
6751;SDS011;3413;47.680;9.166;2023-03-03T16:26:52;44.43;;;15.07;;
6751;SDS011;3413;47.680;9.166;2023-03-03T16:32:39;40.87;;;15.67;;
6751;SDS011;3413;47.680;9.166;2023-03-03T16:43:10;50.40;;;15.27;;
6751;SDS011;3413;47.680;9.166;2023-03-03T16:53:50;48.47;;;15.60;;
6751;SDS011;3413;47.680;9.166;2023-03-03T16:59:10;42.33;;;16.17;;
6751;SDS011;3413;47.680;9.166;2023-03-03T17:04:40;50.93;;;15.67;;
6751;SDS011;3413;47.680;9.166;2023-03-03T17:09:49;49.30;;;16.23;;
6751;SDS011;3413;47.680;9.166;2023-03-03T17:57:55;44.63;;;14.70;;
6751;SDS011;3413;47.680;9.166;2023-03-03T18:03:45;48.20;;;15.20;;
6751;SDS011;3413;47.680;9.166;2023-03-03T18:08:54;45.53;;;15.77;;
6751;SDS011;3413;47.680;9.166;2023-03-03T18:14:27;47.30;;;14.70;;
6751;SDS011;3413;47.680;9.166;2023-03-03T18:25:14;48.20;;;15.37;;
6751;SDS011;3413;47.680;9.166;2023-03-03T18:30:58;47.33;;;17.30;;
6751;SDS011;3413;47.680;9.166;2023-03-03T18:36:13;50.50;;;17.77;;
6751;SDS011;3413;47.680;9.166;2023-03-03T18:41:28;68.17;;;20.37;;
6751;SDS011;3413;47.680;9.166;2023-03-03T18:46:54;52.60;;;17.77;;
6751;SDS011;3413;47.680;9.166;2023-03-03T18:57:37;57.03;;;16.80;;
6751;SDS011;3413;47.680;9.166;2023-03-03T19:02:40;57.70;;;16.50;;
6751;SDS011;3413;47.680;9.166;2023-03-03T19:08:02;50.27;;;16.93;;
6751;SDS011;3413;47.680;9.166;2023-03-03T19:13:35;42.50;;;16.53;;
6751;SDS011;3413;47.680;9.166;2023-03-03T19:34:45;48.00;;;15.33;;
6751;SDS011;3413;47.680;9.166;2023-03-03T19:45:55;58.37;;;17.77;;
6751;SDS011;3413;47.680;9.166;2023-03-03T19:56:22;53.50;;;15.30;;
6751;SDS011;3413;47.680;9.166;2023-03-03T20:01:44;52.27;;;16.73;;
6751;SDS011;3413;47.680;9.166;2023-03-03T20:07:03;48.20;;;15.20;;
6751;SDS011;3413;47.680;9.166;2023-03-03T20:22:49;49.67;;;16.50;;
6751;SDS011;3413;47.680;9.166;2023-03-03T20:28:02;48.40;;;17.10;;
6751;SDS011;3413;47.680;9.166;2023-03-03T20:38:55;56.33;;;18.10;;
6751;SDS011;3413;47.680;9.166;2023-03-03T20:49:32;54.83;;;16.70;;
6751;SDS011;3413;47.680;9.166;2023-03-03T20:54:48;50.93;;;16.50;;
6751;SDS011;3413;47.680;9.166;2023-03-03T21:00:06;44.33;;;17.00;;
6751;SDS011;3413;47.680;9.166;2023-03-03T21:05:16;46.80;;;13.87;;
6751;SDS011;3413;47.680;9.166;2023-03-03T21:10:26;44.53;;;15.83;;
6751;SDS011;3413;47.680;9.166;2023-03-03T21:15:31;44.10;;;14.73;;
6751;SDS011;3413;47.680;9.166;2023-03-03T21:20:36;48.30;;;16.70;;
6751;SDS011;3413;47.680;9.166;2023-03-03T21:25:51;58.13;;;16.67;;
6751;SDS011;3413;47.680;9.166;2023-03-03T21:36:16;63.90;;;18.43;;
6751;SDS011;3413;47.680;9.166;2023-03-03T21:41:21;59.30;;;19.80;;
6751;SDS011;3413;47.680;9.166;2023-03-03T21:46:23;51.97;;;16.20;;
6751;SDS011;3413;47.680;9.166;2023-03-03T21:51:25;57.57;;;16.17;;
6751;SDS011;3413;47.680;9.166;2023-03-03T21:56:29;50.33;;;16.83;;
6751;SDS011;3413;47.680;9.166;2023-03-03T22:01:31;57.97;;;18.53;;
6751;SDS011;3413;47.680;9.166;2023-03-03T22:06:33;55.10;;;18.70;;
6751;SDS011;3413;47.680;9.166;2023-03-03T22:11:35;52.67;;;17.93;;
6751;SDS011;3413;47.680;9.166;2023-03-03T22:16:37;48.93;;;16.47;;
6751;SDS011;3413;47.680;9.166;2023-03-03T22:21:39;48.43;;;16.93;;
6751;SDS011;3413;47.680;9.166;2023-03-03T22:26:41;53.43;;;17.93;;
6751;SDS011;3413;47.680;9.166;2023-03-03T22:31:43;50.50;;;17.13;;
6751;SDS011;3413;47.680;9.166;2023-03-03T22:36:45;50.10;;;16.00;;
6751;SDS011;3413;47.680;9.166;2023-03-03T22:41:47;52.03;;;17.07;;
6751;SDS011;3413;47.680;9.166;2023-03-03T22:46:49;51.93;;;16.90;;
6751;SDS011;3413;47.680;9.166;2023-03-03T22:51:51;55.40;;;17.70;;
6751;SDS011;3413;47.680;9.166;2023-03-03T22:56:53;56.37;;;19.20;;
6751;SDS011;3413;47.680;9.166;2023-03-03T23:01:56;57.60;;;16.97;;
6751;SDS011;3413;47.680;9.166;2023-03-03T23:06:58;61.60;;;17.93;;
6751;SDS011;3413;47.680;9.166;2023-03-03T23:12:01;47.07;;;15.40;;
6751;SDS011;3413;47.680;9.166;2023-03-03T23:17:03;59.80;;;16.00;;
6751;SDS011;3413;47.680;9.166;2023-03-03T23:22:05;70.30;;;16.53;;
6751;SDS011;3413;47.680;9.166;2023-03-03T23:27:08;46.90;;;16.50;;
6751;SDS011;3413;47.680;9.166;2023-03-03T23:32:10;48.33;;;13.77;;
6751;SDS011;3413;47.680;9.166;2023-03-03T23:37:13;45.83;;;16.00;;
6751;SDS011;3413;47.680;9.166;2023-03-03T23:42:15;52.33;;;15.47;;
6751;SDS011;3413;47.680;9.166;2023-03-03T23:47:17;46.20;;;16.17;;
6751;SDS011;3413;47.680;9.166;2023-03-03T23:52:19;43.00;;;15.50;;
6751;SDS011;3413;47.680;9.166;2023-03-03T23:57:21;46.43;;;16.50;;
